sensor_id;sensor_type;location;lat;lon;timestamp;P1;durP1;ratioP1;P2;durP2;ratioP2
63350;SDS011;64988;51.058;17.040;2023-01-29T00:01:34;17.75;;;9.15;;
63350;SDS011;64988;51.058;17.040;2023-01-29T00:07:02;21.83;;;9.82;;
63350;SDS011;64988;51.058;17.040;2023-01-29T00:12:29;18.40;;;9.48;;
63350;SDS011;64988;51.058;17.040;2023-01-29T00:17:57;25.02;;;11.18;;
63350;SDS011;64988;51.058;17.040;2023-01-29T00:23:25;21.05;;;11.10;;
63350;SDS011;64988;51.058;17.040;2023-01-29T00:28:52;24.77;;;11.45;;
63350;SDS011;64988;51.058;17.040;2023-01-29T00:34:20;26.73;;;12.07;;
63350;SDS011;64988;51.058;17.040;2023-01-29T00:39:49;26.67;;;12.30;;
63350;SDS011;64988;51.058;17.040;2023-01-29T00:45:17;27.67;;;12.43;;
63350;SDS011;64988;51.058;17.040;2023-01-29T00:50:44;24.95;;;12.20;;
63350;SDS011;64988;51.058;17.040;2023-01-29T00:56:12;27.83;;;12.40;;
63350;SDS011;64988;51.058;17.040;2023-01-29T01:01:40;31.27;;;13.63;;
63350;SDS011;64988;51.058;17.040;2023-01-29T01:07:34;28.85;;;12.60;;
63350;SDS011;64988;51.058;17.040;2023-01-29T01:13:04;30.33;;;13.77;;
63350;SDS011;64988;51.058;17.040;2023-01-29T01:18:33;24.73;;;12.68;;
63350;SDS011;64988;51.058;17.040;2023-01-29T01:24:00;31.52;;;13.38;;
63350;SDS011;64988;51.058;17.040;2023-01-29T01:29:31;23.70;;;12.05;;
63350;SDS011;64988;51.058;17.040;2023-01-29T01:34:59;23.17;;;11.80;;
63350;SDS011;64988;51.058;17.040;2023-01-29T01:40:27;26.00;;;11.07;;
63350;SDS011;64988;51.058;17.040;2023-01-29T01:45:54;22.08;;;11.10;;
63350;SDS011;64988;51.058;17.040;2023-01-29T01:51:22;26.42;;;11.60;;
63350;SDS011;64988;51.058;17.040;2023-01-29T01:56:56;20.73;;;10.60;;
63350;SDS011;64988;51.058;17.040;2023-01-29T02:02:35;22.42;;;9.52;;
63350;SDS011;64988;51.058;17.040;2023-01-29T02:08:25;16.52;;;9.00;;
63350;SDS011;64988;51.058;17.040;2023-01-29T02:14:19;11.73;;;7.30;;
63350;SDS011;64988;51.058;17.040;2023-01-29T02:37:44;13.10;;;7.28;;
63350;SDS011;64988;51.058;17.040;2023-01-29T02:49:29;15.33;;;7.93;;
63350;SDS011;64988;51.058;17.040;2023-01-29T02:55:05;16.95;;;8.98;;
63350;SDS011;64988;51.058;17.040;2023-01-29T03:00:40;13.18;;;8.10;;
63350;SDS011;64988;51.058;17.040;2023-01-29T03:06:12;14.43;;;7.80;;
63350;SDS011;64988;51.058;17.040;2023-01-29T03:11:48;13.18;;;7.40;;
63350;SDS011;64988;51.058;17.040;2023-01-29T03:17:22;14.13;;;6.88;;
63350;SDS011;64988;51.058;17.040;2023-01-29T03:23:00;14.73;;;7.90;;
63350;SDS011;64988;51.058;17.040;2023-01-29T03:28:39;14.98;;;9.27;;
63350;SDS011;64988;51.058;17.040;2023-01-29T03:34:28;11.27;;;7.45;;
63350;SDS011;64988;51.058;17.040;2023-01-29T03:40:05;13.48;;;7.93;;
63350;SDS011;64988;51.058;17.040;2023-01-29T03:45:54;10.90;;;6.93;;
63350;SDS011;64988;51.058;17.040;2023-01-29T03:57:39;12.20;;;7.60;;
63350;SDS011;64988;51.058;17.040;2023-01-29T04:03:15;12.70;;;7.97;;
63350;SDS011;64988;51.058;17.040;2023-01-29T04:09:10;16.08;;;8.20;;
63350;SDS011;64988;51.058;17.040;2023-01-29T04:14:49;15.57;;;7.90;;
63350;SDS011;64988;51.058;17.040;2023-01-29T04:20:19;17.10;;;9.85;;
63350;SDS011;64988;51.058;17.040;2023-01-29T04:25:54;21.15;;;9.27;;
63350;SDS011;64988;51.058;17.040;2023-01-29T04:31:45;12.73;;;8.02;;
63350;SDS011;64988;51.058;17.040;2023-01-29T04:37:34;21.70;;;10.02;;
63350;SDS011;64988;51.058;17.040;2023-01-29T04:54:43;17.17;;;9.63;;
63350;SDS011;64988;51.058;17.040;2023-01-29T05:06:12;17.95;;;8.60;;
63350;SDS011;64988;51.058;17.040;2023-01-29T05:11:42;13.07;;;7.38;;
63350;SDS011;64988;51.058;17.040;2023-01-29T05:17:14;19.40;;;8.43;;
63350;SDS011;64988;51.058;17.040;2023-01-29T05:22:44;22.00;;;8.38;;
63350;SDS011;64988;51.058;17.040;2023-01-29T05:28:14;15.48;;;7.93;;
63350;SDS011;64988;51.058;17.040;2023-01-29T05:33:44;18.00;;;9.80;;
63350;SDS011;64988;51.058;17.040;2023-01-29T05:39:11;13.52;;;8.38;;
63350;SDS011;64988;51.058;17.040;2023-01-29T05:44:38;11.48;;;7.20;;
63350;SDS011;64988;51.058;17.040;2023-01-29T05:50:05;14.55;;;8.20;;
63350;SDS011;64988;51.058;17.040;2023-01-29T05:55:33;15.02;;;8.50;;
63350;SDS011;64988;51.058;17.040;2023-01-29T06:01:08;14.23;;;8.43;;
63350;SDS011;64988;51.058;17.040;2023-01-29T06:06:36;15.70;;;7.88;;
63350;SDS011;64988;51.058;17.040;2023-01-29T06:12:03;12.73;;;7.20;;
63350;SDS011;64988;51.058;17.040;2023-01-29T06:17:32;10.43;;;7.50;;
63350;SDS011;64988;51.058;17.040;2023-01-29T06:22:59;12.27;;;7.15;;
63350;SDS011;64988;51.058;17.040;2023-01-29T06:28:26;15.65;;;6.80;;
63350;SDS011;64988;51.058;17.040;2023-01-29T06:33:54;15.63;;;7.65;;
63350;SDS011;64988;51.058;17.040;2023-01-29T06:39:22;15.15;;;7.78;;
63350;SDS011;64988;51.058;17.040;2023-01-29T06:44:49;11.70;;;7.60;;
63350;SDS011;64988;51.058;17.040;2023-01-29T06:50:16;15.77;;;7.78;;
63350;SDS011;64988;51.058;17.040;2023-01-29T06:55:50;13.20;;;7.63;;
63350;SDS011;64988;51.058;17.040;2023-01-29T07:01:18;12.80;;;7.40;;
63350;SDS011;64988;51.058;17.040;2023-01-29T07:07:01;16.83;;;7.78;;
63350;SDS011;64988;51.058;17.040;2023-01-29T07:12:29;18.17;;;8.13;;
63350;SDS011;64988;51.058;17.040;2023-01-29T07:17:57;12.25;;;7.50;;
63350;SDS011;64988;51.058;17.040;2023-01-29T07:23:29;14.23;;;7.38;;
63350;SDS011;64988;51.058;17.040;2023-01-29T07:28:56;12.50;;;7.55;;
63350;SDS011;64988;51.058;17.040;2023-01-29T07:34:24;12.98;;;7.13;;
63350;SDS011;64988;51.058;17.040;2023-01-29T07:39:51;15.45;;;7.35;;
63350;SDS011;64988;51.058;17.040;2023-01-29T07:45:18;15.13;;;7.97;;
63350;SDS011;64988;51.058;17.040;2023-01-29T07:50:52;12.75;;;7.82;;
63350;SDS011;64988;51.058;17.040;2023-01-29T07:56:20;12.93;;;7.22;;
63350;SDS011;64988;51.058;17.040;2023-01-29T08:01:48;15.98;;;7.60;;
63350;SDS011;64988;51.058;17.040;2023-01-29T08:07:17;12.45;;;7.53;;
63350;SDS011;64988;51.058;17.040;2023-01-29T08:12:44;12.20;;;8.05;;
63350;SDS011;64988;51.058;17.040;2023-01-29T08:18:13;16.50;;;9.18;;
63350;SDS011;64988;51.058;17.040;2023-01-29T08:23:40;15.90;;;8.65;;
63350;SDS011;64988;51.058;17.040;2023-01-29T08:29:09;18.08;;;8.75;;
63350;SDS011;64988;51.058;17.040;2023-01-29T08:34:40;15.93;;;9.68;;
63350;SDS011;64988;51.058;17.040;2023-01-29T08:40:10;16.85;;;9.38;;
63350;SDS011;64988;51.058;17.040;2023-01-29T08:45:42;16.38;;;9.60;;
63350;SDS011;64988;51.058;17.040;2023-01-29T08:51:13;16.95;;;9.27;;
63350;SDS011;64988;51.058;17.040;2023-01-29T08:56:48;18.70;;;10.10;;
63350;SDS011;64988;51.058;17.040;2023-01-29T09:02:26;17.80;;;8.73;;
63350;SDS011;64988;51.058;17.040;2023-01-29T09:07:57;20.00;;;9.93;;
63350;SDS011;64988;51.058;17.040;2023-01-29T09:13:26;17.00;;;9.40;;
63350;SDS011;64988;51.058;17.040;2023-01-29T09:18:56;19.00;;;10.15;;
63350;SDS011;64988;51.058;17.040;2023-01-29T09:24:24;22.58;;;12.23;;
63350;SDS011;64988;51.058;17.040;2023-01-29T09:29:53;20.02;;;11.05;;
63350;SDS011;64988;51.058;17.040;2023-01-29T09:35:22;20.27;;;11.52;;
63350;SDS011;64988;51.058;17.040;2023-01-29T09:46:48;21.75;;;11.95;;
63350;SDS011;64988;51.058;17.040;2023-01-29T09:52:34;19.45;;;11.40;;
63350;SDS011;64988;51.058;17.040;2023-01-29T09:58:16;19.50;;;11.30;;
63350;SDS011;64988;51.058;17.040;2023-01-29T10:15:41;17.58;;;9.98;;
63350;SDS011;64988;51.058;17.040;2023-01-29T10:27:21;17.40;;;9.80;;
63350;SDS011;64988;51.058;17.040;2023-01-29T10:33:00;17.02;;;10.20;;
63350;SDS011;64988;51.058;17.040;2023-01-29T11:01:48;17.05;;;9.98;;
63350;SDS011;64988;51.058;17.040;2023-01-29T11:07:15;19.30;;;10.27;;
63350;SDS011;64988;51.058;17.040;2023-01-29T11:12:45;17.95;;;9.70;;
63350;SDS011;64988;51.058;17.040;2023-01-29T11:18:13;16.25;;;9.43;;
63350;SDS011;64988;51.058;17.040;2023-01-29T11:23:40;19.90;;;10.25;;
63350;SDS011;64988;51.058;17.040;2023-01-29T11:40:38;15.40;;;9.93;;
63350;SDS011;64988;51.058;17.040;2023-01-29T11:46:10;16.83;;;9.30;;
63350;SDS011;64988;51.058;17.040;2023-01-29T11:51:40;14.18;;;8.43;;
63350;SDS011;64988;51.058;17.040;2023-01-29T11:57:51;16.83;;;9.10;;
63350;SDS011;64988;51.058;17.040;2023-01-29T12:03:29;15.30;;;8.80;;
63350;SDS011;64988;51.058;17.040;2023-01-29T12:09:10;15.65;;;8.57;;
63350;SDS011;64988;51.058;17.040;2023-01-29T12:14:45;16.65;;;9.15;;
63350;SDS011;64988;51.058;17.040;2023-01-29T12:20:13;18.23;;;8.70;;
63350;SDS011;64988;51.058;17.040;2023-01-29T12:26:07;19.38;;;9.85;;
63350;SDS011;64988;51.058;17.040;2023-01-29T12:43:14;11.30;;;6.85;;
63350;SDS011;64988;51.058;17.040;2023-01-29T12:48:43;15.30;;;6.82;;
63350;SDS011;64988;51.058;17.040;2023-01-29T12:54:13;14.88;;;7.50;;
63350;SDS011;64988;51.058;17.040;2023-01-29T13:05:45;17.05;;;8.77;;
63350;SDS011;64988;51.058;17.040;2023-01-29T13:11:20;21.25;;;8.88;;
63350;SDS011;64988;51.058;17.040;2023-01-29T13:17:01;19.83;;;9.82;;
63350;SDS011;64988;51.058;17.040;2023-01-29T13:22:38;20.25;;;10.18;;
63350;SDS011;64988;51.058;17.040;2023-01-29T13:28:15;17.02;;;8.32;;
63350;SDS011;64988;51.058;17.040;2023-01-29T13:39:47;17.15;;;8.00;;
63350;SDS011;64988;51.058;17.040;2023-01-29T13:45:19;18.75;;;8.77;;
63350;SDS011;64988;51.058;17.040;2023-01-29T13:50:47;20.23;;;9.30;;
63350;SDS011;64988;51.058;17.040;2023-01-29T13:56:27;16.55;;;8.50;;
63350;SDS011;64988;51.058;17.040;2023-01-29T14:02:00;23.20;;;10.23;;
63350;SDS011;64988;51.058;17.040;2023-01-29T14:18:44;25.67;;;11.13;;
63350;SDS011;64988;51.058;17.040;2023-01-29T14:24:21;25.50;;;11.98;;
63350;SDS011;64988;51.058;17.040;2023-01-29T14:30:05;24.35;;;12.52;;
63350;SDS011;64988;51.058;17.040;2023-01-29T14:35:35;21.33;;;11.40;;
63350;SDS011;64988;51.058;17.040;2023-01-29T14:41:25;25.45;;;12.35;;
63350;SDS011;64988;51.058;17.040;2023-01-29T14:46:54;26.30;;;12.23;;
63350;SDS011;64988;51.058;17.040;2023-01-29T14:52:41;23.02;;;12.60;;
63350;SDS011;64988;51.058;17.040;2023-01-29T14:58:17;25.92;;;12.73;;
63350;SDS011;64988;51.058;17.040;2023-01-29T15:03:55;26.35;;;12.98;;
63350;SDS011;64988;51.058;17.040;2023-01-29T15:15:19;22.35;;;11.95;;
63350;SDS011;64988;51.058;17.040;2023-01-29T15:21:02;23.90;;;12.73;;
63350;SDS011;64988;51.058;17.040;2023-01-29T15:26:31;26.02;;;13.23;;
63350;SDS011;64988;51.058;17.040;2023-01-29T15:32:31;27.20;;;12.82;;
63350;SDS011;64988;51.058;17.040;2023-01-29T15:43:36;33.33;;;14.17;;
63350;SDS011;64988;51.058;17.040;2023-01-29T15:49:14;30.40;;;14.60;;
63350;SDS011;64988;51.058;17.040;2023-01-29T15:54:46;26.15;;;13.52;;
63350;SDS011;64988;51.058;17.040;2023-01-29T16:00:21;29.38;;;15.48;;
63350;SDS011;64988;51.058;17.040;2023-01-29T16:05:55;34.80;;;16.80;;
63350;SDS011;64988;51.058;17.040;2023-01-29T16:11:22;41.35;;;18.98;;
63350;SDS011;64988;51.058;17.040;2023-01-29T16:16:50;41.65;;;20.63;;
63350;SDS011;64988;51.058;17.040;2023-01-29T16:22:18;45.15;;;20.45;;
63350;SDS011;64988;51.058;17.040;2023-01-29T16:27:45;43.90;;;19.35;;
63350;SDS011;64988;51.058;17.040;2023-01-29T16:33:14;38.97;;;19.58;;
63350;SDS011;64988;51.058;17.040;2023-01-29T16:38:45;39.05;;;19.00;;
63350;SDS011;64988;51.058;17.040;2023-01-29T16:49:49;43.78;;;18.80;;
63350;SDS011;64988;51.058;17.040;2023-01-29T17:00:48;44.03;;;19.10;;
63350;SDS011;64988;51.058;17.040;2023-01-29T17:06:23;39.95;;;19.27;;
63350;SDS011;64988;51.058;17.040;2023-01-29T17:11:52;44.20;;;20.48;;
63350;SDS011;64988;51.058;17.040;2023-01-29T17:17:32;43.42;;;20.42;;
63350;SDS011;64988;51.058;17.040;2023-01-29T17:23:02;38.33;;;18.48;;
63350;SDS011;64988;51.058;17.040;2023-01-29T17:28:30;35.42;;;17.65;;
63350;SDS011;64988;51.058;17.040;2023-01-29T17:33:57;39.58;;;19.45;;
63350;SDS011;64988;51.058;17.040;2023-01-29T17:39:25;43.72;;;20.05;;
63350;SDS011;64988;51.058;17.040;2023-01-29T17:44:52;38.78;;;17.85;;
63350;SDS011;64988;51.058;17.040;2023-01-29T17:50:22;44.70;;;19.60;;
63350;SDS011;64988;51.058;17.040;2023-01-29T17:55:53;41.20;;;20.02;;
63350;SDS011;64988;51.058;17.040;2023-01-29T18:01:20;45.90;;;21.42;;
63350;SDS011;64988;51.058;17.040;2023-01-29T18:06:48;47.15;;;20.60;;
63350;SDS011;64988;51.058;17.040;2023-01-29T18:12:17;47.13;;;21.52;;
63350;SDS011;64988;51.058;17.040;2023-01-29T18:17:45;47.88;;;20.80;;
63350;SDS011;64988;51.058;17.040;2023-01-29T18:23:13;42.30;;;20.42;;
63350;SDS011;64988;51.058;17.040;2023-01-29T18:28:41;48.78;;;22.20;;
63350;SDS011;64988;51.058;17.040;2023-01-29T18:34:09;48.15;;;21.25;;
63350;SDS011;64988;51.058;17.040;2023-01-29T18:39:37;40.40;;;19.95;;
63350;SDS011;64988;51.058;17.040;2023-01-29T18:45:06;45.78;;;20.90;;
63350;SDS011;64988;51.058;17.040;2023-01-29T18:50:34;38.55;;;19.83;;
63350;SDS011;64988;51.058;17.040;2023-01-29T18:56:03;46.75;;;19.35;;
63350;SDS011;64988;51.058;17.040;2023-01-29T19:01:33;40.17;;;19.88;;
63350;SDS011;64988;51.058;17.040;2023-01-29T19:07:00;41.25;;;20.02;;
63350;SDS011;64988;51.058;17.040;2023-01-29T19:12:27;48.65;;;21.10;;
63350;SDS011;64988;51.058;17.040;2023-01-29T19:17:55;47.25;;;20.15;;
63350;SDS011;64988;51.058;17.040;2023-01-29T19:23:23;48.80;;;21.48;;
63350;SDS011;64988;51.058;17.040;2023-01-29T19:28:51;43.20;;;21.90;;
63350;SDS011;64988;51.058;17.040;2023-01-29T19:34:19;48.65;;;22.77;;
63350;SDS011;64988;51.058;17.040;2023-01-29T19:39:47;48.95;;;24.33;;
63350;SDS011;64988;51.058;17.040;2023-01-29T19:45:15;48.40;;;24.08;;
63350;SDS011;64988;51.058;17.040;2023-01-29T19:51:03;59.00;;;26.10;;
63350;SDS011;64988;51.058;17.040;2023-01-29T19:56:35;58.70;;;24.50;;
63350;SDS011;64988;51.058;17.040;2023-01-29T20:02:03;49.63;;;22.42;;
63350;SDS011;64988;51.058;17.040;2023-01-29T20:07:31;56.38;;;24.17;;
63350;SDS011;64988;51.058;17.040;2023-01-29T20:12:58;52.90;;;24.55;;
63350;SDS011;64988;51.058;17.040;2023-01-29T20:18:26;52.45;;;23.60;;
63350;SDS011;64988;51.058;17.040;2023-01-29T20:23:53;49.85;;;23.35;;
63350;SDS011;64988;51.058;17.040;2023-01-29T20:29:21;51.35;;;23.65;;
63350;SDS011;64988;51.058;17.040;2023-01-29T20:34:49;50.35;;;22.55;;
63350;SDS011;64988;51.058;17.040;2023-01-29T20:40:20;51.75;;;24.02;;
63350;SDS011;64988;51.058;17.040;2023-01-29T20:45:48;57.70;;;24.25;;
63350;SDS011;64988;51.058;17.040;2023-01-29T20:51:17;51.50;;;21.23;;
63350;SDS011;64988;51.058;17.040;2023-01-29T20:56:45;49.97;;;21.60;;
63350;SDS011;64988;51.058;17.040;2023-01-29T21:02:44;44.17;;;19.52;;
63350;SDS011;64988;51.058;17.040;2023-01-29T21:08:19;39.47;;;18.05;;
63350;SDS011;64988;51.058;17.040;2023-01-29T21:14:01;37.78;;;16.45;;
63350;SDS011;64988;51.058;17.040;2023-01-29T21:19:43;32.80;;;15.63;;
63350;SDS011;64988;51.058;17.040;2023-01-29T21:25:14;31.47;;;14.53;;
63350;SDS011;64988;51.058;17.040;2023-01-29T21:30:43;35.58;;;15.90;;
63350;SDS011;64988;51.058;17.040;2023-01-29T21:36:14;28.27;;;14.20;;
63350;SDS011;64988;51.058;17.040;2023-01-29T21:42:06;33.63;;;15.43;;
63350;SDS011;64988;51.058;17.040;2023-01-29T21:48:05;33.28;;;16.00;;
63350;SDS011;64988;51.058;17.040;2023-01-29T21:53:33;32.55;;;14.85;;
63350;SDS011;64988;51.058;17.040;2023-01-29T21:59:02;36.85;;;17.20;;
63350;SDS011;64988;51.058;17.040;2023-01-29T22:04:31;39.40;;;16.33;;
63350;SDS011;64988;51.058;17.040;2023-01-29T22:09:58;35.28;;;16.23;;
63350;SDS011;64988;51.058;17.040;2023-01-29T22:15:27;38.95;;;16.75;;
63350;SDS011;64988;51.058;17.040;2023-01-29T22:20:55;39.70;;;17.20;;
63350;SDS011;64988;51.058;17.040;2023-01-29T22:26:22;40.35;;;17.83;;
63350;SDS011;64988;51.058;17.040;2023-01-29T22:31:49;39.00;;;16.98;;
63350;SDS011;64988;51.058;17.040;2023-01-29T22:37:16;39.40;;;18.73;;
63350;SDS011;64988;51.058;17.040;2023-01-29T22:42:43;36.70;;;16.73;;
63350;SDS011;64988;51.058;17.040;2023-01-29T22:48:11;37.20;;;16.50;;
63350;SDS011;64988;51.058;17.040;2023-01-29T22:53:39;38.58;;;16.55;;
63350;SDS011;64988;51.058;17.040;2023-01-29T22:59:09;37.33;;;16.88;;
63350;SDS011;64988;51.058;17.040;2023-01-29T23:04:37;35.83;;;15.90;;
63350;SDS011;64988;51.058;17.040;2023-01-29T23:10:04;33.95;;;15.77;;
63350;SDS011;64988;51.058;17.040;2023-01-29T23:15:33;27.95;;;14.63;;
63350;SDS011;64988;51.058;17.040;2023-01-29T23:21:00;31.85;;;16.08;;
63350;SDS011;64988;51.058;17.040;2023-01-29T23:26:28;31.23;;;15.93;;
63350;SDS011;64988;51.058;17.040;2023-01-29T23:32:15;32.35;;;15.10;;
63350;SDS011;64988;51.058;17.040;2023-01-29T23:37:46;39.95;;;18.10;;
63350;SDS011;64988;51.058;17.040;2023-01-29T23:43:14;34.85;;;15.80;;
63350;SDS011;64988;51.058;17.040;2023-01-29T23:48:40;32.97;;;15.95;;
63350;SDS011;64988;51.058;17.040;2023-01-29T23:54:08;32.33;;;15.63;;
63350;SDS011;64988;51.058;17.040;2023-01-29T23:59:35;33.92;;;17.27;;
